24.9°F
Current conditions from King Hill
Updated every 5 minutes
 
  Monday March 2, 2015

Observations for Westford

Westford

44° 37' 39"N, 73° 02' 29"W, Elevation 850 ft.
Eastern Time

Hourly observations for the last 72 hours

Date Time Temperature (F) Humi-
dity

(%)
Wind
(mph)
Pressure Rain (in)
Air Dew 6 Hour 1 Hr 3 Hr 6 Hr Day
Alt
(in)
Sea
Level

(mb)
Max Min
2 15:00 23.2 17.7 79 WNW 5 G 22 30.00 1016.1 0.00
2 14:00 23.3 17.8 79 WNW 3 G 23 29.97 1015.0 0.00
2 13:00 25.6 15.5 25.6 19.4 65 NW 2 G 15 29.96 1014.5 0.00
2 12:00 24.5 14.1 64 W 9 G 15 29.97 1014.8 0.00
2 11:00 23.6 14.9 69 WSW 5 G 12 29.98 1015.1 0.00
2 10:00 21.3 15.8 79 WNW 0 G 7 29.98 1015.2 0.00
2 09:00 20.1 15.8 83 NW 2 G 12 29.98 1015.1 0.00
2 08:00 19.5 17.3 91 NW 2 G 13 29.96 1014.7 0.00
2 07:00 19.8 17.9 20.6 19.7 92 Calm 29.95 1014.3 0.00
2 06:00 20.1 18.2 92 W 0 G 4 29.95 1014.4 0.00
2 05:00 20.0 18.1 92 SW 1 G 5 29.94 1014.1 0.00
2 04:00 20.0 18.1 92 SSW 0 G 3 29.93 1013.7 0.00
2 03:00 20.4 18.2 91 SSW 3 G 9 29.96 1014.5 0.00
2 02:00 20.4 17.9 90 SW 2 G 9 29.99 1015.6 0.00
2 01:00 20.5 18.0 22.3 20.4 90 SSW 2 G 12 30.01 1016.2 0.00
2 00:00 20.5 18.3 91 SSW 4 G 10 30.03 1016.9 0.00
1 23:00 20.7 18.5 91 SSW 3 G 10 30.06 1017.9 0.00
1 22:00 21.0 18.8 91 SSW 4 G 10 30.09 1018.9 0.00
1 21:00 21.2 18.7 90 SSW 3 G 10 30.11 1019.8 0.00
1 20:00 21.7 17.9 85 SSW 5 G 12 30.13 1020.4 0.00
1 19:00 22.3 17.1 27.3 22.3 80 S 3 G 20 30.15 1021.1 0.00
1 18:00 23.2 16.8 76 SSW 6 G 19 30.18 1022.1 0.00
1 17:00 24.0 16.9 74 SSW 3 G 20 30.21 1023.1 0.00
1 16:00 24.4 16.3 71 SSW 4 G 16 30.25 1024.3 0.00
1 15:00 25.5 15.7 66 SSW 5 G 18 30.26 1024.8 0.00
1 14:00 26.1 15.2 63 SSW 6 G 20 30.30 1026.0 0.00
1 13:00 26.2 10.1 26.3 6.2 50 S 6 G 18 30.34 1027.5 0.00
1 12:00 25.2 4.8 41 SSW 4 G 18 30.41 1029.8 0.00
1 11:00 21.7 5.0 48 SSW 5 G 10 30.45 1031.1 0.00
1 10:00 19.1 4.4 52 SSW 2 G 7 30.49 1032.6 0.00
1 09:00 10.7 3.8 73 Calm 30.53 1034.0 0.00
1 08:00 11.8 3.9 70 SSW 1 G 4 30.58 1035.4 0.00
1 07:00 6.2 2.1 10.1 2.9 83 Calm 30.59 1035.8 0.00
1 06:00 5.6 1.3 82 Calm 30.60 1036.4 0.00
1 05:00 3.2 -1.3 81 Calm 30.60 1036.4 0.00
1 04:00 6.6 0.9 77 SSW 0 G 1 30.61 1036.7 0.00
1 03:00 7.1 2.5 81 Calm 30.64 1037.5 0.00
1 02:00 7.8 2.4 78 Calm 30.65 1037.8 0.00
1 01:00 10.1 3.5 15.3 8.7 74 Calm 30.66 1038.1 0.00
1 00:00 10.4 3.2 72 Calm 30.67 1038.5 0.00
28 23:00 11.3 3.1 69 SSW 0 G 1 30.66 1038.2 0.00
28 22:00 8.7 1.2 71 Calm 30.66 1038.3 0.00
28 21:00 13.5 2.5 61 SSW 0 G 1 30.66 1038.2 0.00
28 20:00 15.3 2.8 57 SSW 1 G 6 30.66 1038.2 0.00
28 19:00 14.9 1.6 23.3 14.9 55 SSW 0 G 2 30.66 1038.3 0.00
28 18:00 17.2 1.7 50 SSW 0 G 3 30.64 1037.8 0.00
28 17:00 21.8 3.2 44 SW 0 G 5 30.64 1037.7 0.00
28 16:00 23.1 4.4 44 SSW 2 G 5 30.65 1037.9 0.00
28 15:00 22.3 4.6 46 SW 2 G 8 30.66 1038.2 0.00
28 14:00 21.7 5.0 48 S 1 G 6 30.67 1038.5 0.00
28 13:00 19.7 4.9 20.0 2.9 52 SW 1 G 8 30.69 1039.2 0.00
28 12:00 18.0 4.1 54 SW 2 G 5 30.71 1040.1 0.00
28 11:00 14.4 2.7 59 W 1 G 11 30.73 1040.6 0.00
28 10:00 12.8 1.5 60 SW 1 G 8 30.72 1040.3 0.00
28 09:00 10.5 1.1 65 SSW 4 G 10 30.72 1040.2 0.00
28 08:00 4.8 -1.7 74 WSW 0 G 4 30.71 1039.9 0.00
28 07:00 4.0 -2.2 8.0 3.4 75 SW 0 G 1 30.68 1038.9 0.00
28 06:00 4.8 -2.2 72 SSW 0 G 1 30.66 1038.4 0.00
28 05:00 6.3 -1.7 69 W 0 G 2 30.64 1037.7 0.00
28 04:00 6.8 -0.9 70 W 1 G 5 30.62 1036.8 0.00
28 03:00 6.4 -1.3 70 W 1 G 3 30.59 1036.1 0.00
28 02:00 6.2 -1.2 71 W 0 G 5 30.59 1036.1 0.00
28 01:00 7.7 -0.0 8.6 2.5 70 W 4 G 8 30.57 1035.4 0.00
28 00:00 6.8 -1.2 69 W 0 G 4 30.55 1034.5 0.00
27 23:00 6.8 -1.8 67 W 0 G 3 30.54 1034.2 0.00
27 22:00 6.6 -3.0 64 SW 0 G 2 30.52 1033.6 0.00
27 21:00 3.4 -6.7 62 W 0 G 1 30.50 1032.8 0.00
27 20:00 4.0 -6.5 61 Calm 30.46 1031.7 0.00
27 19:00 5.1 -5.4 17.8 5.1 61 Calm 30.44 1031.0 0.00
27 18:00 8.7 -4.2 55 Calm 30.42 1030.2 0.00
27 17:00 15.6 -4.5 40 NNE 0 G 1 30.40 1029.4 0.00
27 16:00 17.1 -4.2 38 N 0 G 1 30.39 1029.1 0.00

Data generated by WxSolution Version 1.8.7.3, Build 2014.12.21.


 
 
Current Radar Loop:

Copyright © WestfordWeather.net 2007-2015. All rights reserved.